sensor_id;sensor_type;location;lat;lon;timestamp;temperature;humidity
71396;DHT22;59888;55.814;37.132;2023-02-15T00:01:32;0.43;61.64
71396;DHT22;59888;55.814;37.132;2023-02-15T00:03:58;0.47;61.57
71396;DHT22;59888;55.814;37.132;2023-02-15T00:06:25;0.50;61.39
71396;DHT22;59888;55.814;37.132;2023-02-15T00:08:51;0.53;61.37
71396;DHT22;59888;55.814;37.132;2023-02-15T00:11:18;0.47;61.19
71396;DHT22;59888;55.814;37.132;2023-02-15T00:14:04;0.48;61.28
71396;DHT22;59888;55.814;37.132;2023-02-15T00:16:30;0.49;61.29
71396;DHT22;59888;55.814;37.132;2023-02-15T00:18:56;0.44;61.22
71396;DHT22;59888;55.814;37.132;2023-02-15T00:21:22;0.42;61.34
71396;DHT22;59888;55.814;37.132;2023-02-15T00:23:48;0.39;61.45
71396;DHT22;59888;55.814;37.132;2023-02-15T00:26:14;0.43;61.38
71396;DHT22;59888;55.814;37.132;2023-02-15T00:28:42;0.44;61.34
71396;DHT22;59888;55.814;37.132;2023-02-15T00:31:10;0.39;61.26
71396;DHT22;59888;55.814;37.132;2023-02-15T00:33:37;0.38;61.34
71396;DHT22;59888;55.814;37.132;2023-02-15T00:36:05;0.38;61.34
71396;DHT22;59888;55.814;37.132;2023-02-15T00:38:32;0.39;61.28
71396;DHT22;59888;55.814;37.132;2023-02-15T00:41:00;0.36;61.10
71396;DHT22;59888;55.814;37.132;2023-02-15T00:43:27;0.36;61.03
71396;DHT22;59888;55.814;37.132;2023-02-15T00:45:54;0.39;60.99
71396;DHT22;59888;55.814;37.132;2023-02-15T00:48:20;0.44;60.63
71396;DHT22;59888;55.814;37.132;2023-02-15T00:50:55;0.43;60.71
71396;DHT22;59888;55.814;37.132;2023-02-15T00:53:21;0.40;60.41
71396;DHT22;59888;55.814;37.132;2023-02-15T00:55:48;0.40;60.27
71396;DHT22;59888;55.814;37.132;2023-02-15T00:58:14;0.42;60.35
71396;DHT22;59888;55.814;37.132;2023-02-15T01:00:45;0.38;60.02
71396;DHT22;59888;55.814;37.132;2023-02-15T01:03:12;0.46;60.42
71396;DHT22;59888;55.814;37.132;2023-02-15T01:05:38;0.48;59.70
71396;DHT22;59888;55.814;37.132;2023-02-15T01:08:04;0.49;59.76
71396;DHT22;59888;55.814;37.132;2023-02-15T01:10:31;0.48;59.61
71396;DHT22;59888;55.814;37.132;2023-02-15T01:12:57;0.48;59.74
71396;DHT22;59888;55.814;37.132;2023-02-15T01:15:23;0.48;59.39
71396;DHT22;59888;55.814;37.132;2023-02-15T01:17:49;0.50;59.47
71396;DHT22;59888;55.814;37.132;2023-02-15T01:20:23;0.52;59.48
71396;DHT22;59888;55.814;37.132;2023-02-15T01:22:50;0.51;58.88
71396;DHT22;59888;55.814;37.132;2023-02-15T01:25:17;0.48;58.84
71396;DHT22;59888;55.814;37.132;2023-02-15T01:27:43;0.48;59.19
71396;DHT22;59888;55.814;37.132;2023-02-15T01:30:13;0.50;59.37
71396;DHT22;59888;55.814;37.132;2023-02-15T01:32:39;0.48;59.22
71396;DHT22;59888;55.814;37.132;2023-02-15T01:35:07;0.47;58.93
71396;DHT22;59888;55.814;37.132;2023-02-15T01:37:34;0.44;58.70
71396;DHT22;59888;55.814;37.132;2023-02-15T01:40:01;0.38;58.04
71396;DHT22;59888;55.814;37.132;2023-02-15T01:42:53;0.34;58.56
71396;DHT22;59888;55.814;37.132;2023-02-15T01:45:27;0.32;58.44
71396;DHT22;59888;55.814;37.132;2023-02-15T01:50:33;0.24;58.64
71396;DHT22;59888;55.814;37.132;2023-02-15T01:53:34;0.23;58.51
71396;DHT22;59888;55.814;37.132;2023-02-15T01:56:02;0.19;58.80
71396;DHT22;59888;55.814;37.132;2023-02-15T01:58:30;0.19;58.71
71396;DHT22;59888;55.814;37.132;2023-02-15T02:00:58;0.18;58.57
71396;DHT22;59888;55.814;37.132;2023-02-15T02:06:17;0.17;58.41
71396;DHT22;59888;55.814;37.132;2023-02-15T02:08:59;0.09;58.32
71396;DHT22;59888;55.814;37.132;2023-02-15T02:11:24;0.07;58.02
71396;DHT22;59888;55.814;37.132;2023-02-15T02:13:51;0.06;58.13
71396;DHT22;59888;55.814;37.132;2023-02-15T02:16:52;0.06;58.51
71396;DHT22;59888;55.814;37.132;2023-02-15T02:36:08;-0.28;57.55
71396;DHT22;59888;55.814;37.132;2023-02-15T02:39:00;-0.31;57.45
71396;DHT22;59888;55.814;37.132;2023-02-15T02:44:25;-0.31;57.56
71396;DHT22;59888;55.814;37.132;2023-02-15T02:47:01;-0.28;57.44
71396;DHT22;59888;55.814;37.132;2023-02-15T02:49:33;-0.26;57.54
71396;DHT22;59888;55.814;37.132;2023-02-15T02:55:30;-0.23;57.02
71396;DHT22;59888;55.814;37.132;2023-02-15T02:58:30;-0.25;56.99
71396;DHT22;59888;55.814;37.132;2023-02-15T03:01:17;-0.32;56.57
71396;DHT22;59888;55.814;37.132;2023-02-15T03:04:09;-0.32;56.93
71396;DHT22;59888;55.814;37.132;2023-02-15T03:06:41;-0.35;56.81
71396;DHT22;59888;55.814;37.132;2023-02-15T03:09:14;-0.32;56.61
71396;DHT22;59888;55.814;37.132;2023-02-15T03:11:52;-0.42;56.93
71396;DHT22;59888;55.814;37.132;2023-02-15T03:14:20;-0.39;57.32
71396;DHT22;59888;55.814;37.132;2023-02-15T03:16:47;-0.35;57.13
71396;DHT22;59888;55.814;37.132;2023-02-15T03:19:19;-0.39;56.54
71396;DHT22;59888;55.814;37.132;2023-02-15T03:21:50;-0.38;56.70
71396;DHT22;59888;55.814;37.132;2023-02-15T03:24:37;-0.36;56.41
71396;DHT22;59888;55.814;37.132;2023-02-15T03:27:11;-0.38;56.42
71396;DHT22;59888;55.814;37.132;2023-02-15T03:29:38;-0.31;56.79
71396;DHT22;59888;55.814;37.132;2023-02-15T03:32:19;-0.36;56.03
71396;DHT22;59888;55.814;37.132;2023-02-15T03:34:46;-0.37;54.70
71396;DHT22;59888;55.814;37.132;2023-02-15T03:37:42;-0.39;55.50
71396;DHT22;59888;55.814;37.132;2023-02-15T03:45:32;-0.42;55.34
71396;DHT22;59888;55.814;37.132;2023-02-15T03:48:00;-0.39;55.43
71396;DHT22;59888;55.814;37.132;2023-02-15T03:50:31;-0.38;55.61
71396;DHT22;59888;55.814;37.132;2023-02-15T03:53:18;-0.34;55.66
71396;DHT22;59888;55.814;37.132;2023-02-15T03:55:47;-0.36;55.33
71396;DHT22;59888;55.814;37.132;2023-02-15T03:58:13;-0.40;55.47
71396;DHT22;59888;55.814;37.132;2023-02-15T04:00:59;-0.39;55.34
71396;DHT22;59888;55.814;37.132;2023-02-15T04:03:55;-0.41;55.23
71396;DHT22;59888;55.814;37.132;2023-02-15T04:06:23;-0.43;55.69
71396;DHT22;59888;55.814;37.132;2023-02-15T04:08:48;-0.46;55.20
71396;DHT22;59888;55.814;37.132;2023-02-15T04:11:33;-0.49;55.59
71396;DHT22;59888;55.814;37.132;2023-02-15T04:13:58;-0.51;55.80
71396;DHT22;59888;55.814;37.132;2023-02-15T04:16:44;-0.47;55.87
71396;DHT22;59888;55.814;37.132;2023-02-15T04:19:10;-0.51;55.49
71396;DHT22;59888;55.814;37.132;2023-02-15T04:21:54;-0.50;56.04
71396;DHT22;59888;55.814;37.132;2023-02-15T04:24:39;-0.47;55.87
71396;DHT22;59888;55.814;37.132;2023-02-15T04:27:23;-0.53;55.74
71396;DHT22;59888;55.814;37.132;2023-02-15T04:29:48;-0.53;55.80
71396;DHT22;59888;55.814;37.132;2023-02-15T04:32:15;-0.59;55.87
71396;DHT22;59888;55.814;37.132;2023-02-15T04:34:41;-0.59;55.89
71396;DHT22;59888;55.814;37.132;2023-02-15T04:37:06;-0.59;55.78
71396;DHT22;59888;55.814;37.132;2023-02-15T04:39:32;-0.61;55.85
71396;DHT22;59888;55.814;37.132;2023-02-15T04:41:58;-0.64;55.68
71396;DHT22;59888;55.814;37.132;2023-02-15T04:44:24;-0.67;55.96
71396;DHT22;59888;55.814;37.132;2023-02-15T04:46:50;-0.66;55.85
71396;DHT22;59888;55.814;37.132;2023-02-15T04:49:16;-0.67;55.94
71396;DHT22;59888;55.814;37.132;2023-02-15T04:51:42;-0.68;55.81
71396;DHT22;59888;55.814;37.132;2023-02-15T04:54:08;-0.72;55.74
71396;DHT22;59888;55.814;37.132;2023-02-15T04:56:34;-0.73;55.97
71396;DHT22;59888;55.814;37.132;2023-02-15T04:59:00;-0.73;55.63
71396;DHT22;59888;55.814;37.132;2023-02-15T05:01:26;-0.73;55.66
71396;DHT22;59888;55.814;37.132;2023-02-15T05:03:52;-0.77;55.40
71396;DHT22;59888;55.814;37.132;2023-02-15T05:06:18;-0.74;55.90
71396;DHT22;59888;55.814;37.132;2023-02-15T05:08:44;-0.69;55.43
71396;DHT22;59888;55.814;37.132;2023-02-15T05:11:10;-0.68;55.55
71396;DHT22;59888;55.814;37.132;2023-02-15T05:13:36;-0.66;55.71
71396;DHT22;59888;55.814;37.132;2023-02-15T05:16:02;-0.62;55.49
71396;DHT22;59888;55.814;37.132;2023-02-15T05:18:27;-0.58;55.64
71396;DHT22;59888;55.814;37.132;2023-02-15T05:20:53;-0.58;55.45
71396;DHT22;59888;55.814;37.132;2023-02-15T05:23:19;-0.51;55.78
71396;DHT22;59888;55.814;37.132;2023-02-15T05:25:48;-0.55;55.18
71396;DHT22;59888;55.814;37.132;2023-02-15T05:28:33;-0.62;56.42
71396;DHT22;59888;55.814;37.132;2023-02-15T05:31:11;-0.62;57.19
71396;DHT22;59888;55.814;37.132;2023-02-15T05:33:38;-0.61;55.11
71396;DHT22;59888;55.814;37.132;2023-02-15T05:36:05;-0.59;55.90
71396;DHT22;59888;55.814;37.132;2023-02-15T05:38:31;-0.55;55.75
71396;DHT22;59888;55.814;37.132;2023-02-15T05:40:57;-0.52;55.30
71396;DHT22;59888;55.814;37.132;2023-02-15T05:43:23;-0.49;55.61
71396;DHT22;59888;55.814;37.132;2023-02-15T05:45:51;-0.46;55.12
71396;DHT22;59888;55.814;37.132;2023-02-15T05:48:18;-0.46;55.58
71396;DHT22;59888;55.814;37.132;2023-02-15T05:50:44;-0.53;54.52
71396;DHT22;59888;55.814;37.132;2023-02-15T05:53:11;-0.54;55.13
71396;DHT22;59888;55.814;37.132;2023-02-15T05:55:40;-0.53;55.20
71396;DHT22;59888;55.814;37.132;2023-02-15T05:58:07;-0.52;54.87
71396;DHT22;59888;55.814;37.132;2023-02-15T06:00:34;-0.57;54.66
71396;DHT22;59888;55.814;37.132;2023-02-15T06:03:00;-0.57;55.00
71396;DHT22;59888;55.814;37.132;2023-02-15T06:05:26;-0.50;55.03
71396;DHT22;59888;55.814;37.132;2023-02-15T06:07:52;-0.43;54.93
71396;DHT22;59888;55.814;37.132;2023-02-15T06:10:18;-0.39;55.19
71396;DHT22;59888;55.814;37.132;2023-02-15T06:12:44;-0.38;54.84
71396;DHT22;59888;55.814;37.132;2023-02-15T06:15:10;-0.36;54.78
71396;DHT22;59888;55.814;37.132;2023-02-15T06:17:36;-0.30;54.46
71396;DHT22;59888;55.814;37.132;2023-02-15T06:20:03;-0.23;54.70
71396;DHT22;59888;55.814;37.132;2023-02-15T06:22:29;-0.26;53.86
71396;DHT22;59888;55.814;37.132;2023-02-15T06:24:55;-0.25;53.98
71396;DHT22;59888;55.814;37.132;2023-02-15T06:27:21;-0.17;54.22
71396;DHT22;59888;55.814;37.132;2023-02-15T06:29:47;-0.14;54.23
71396;DHT22;59888;55.814;37.132;2023-02-15T06:32:13;-0.08;54.33
71396;DHT22;59888;55.814;37.132;2023-02-15T06:34:39;-0.08;53.68
71396;DHT22;59888;55.814;37.132;2023-02-15T06:37:05;-0.01;53.82
71396;DHT22;59888;55.814;37.132;2023-02-15T06:39:31;0.01;53.59
71396;DHT22;59888;55.814;37.132;2023-02-15T06:41:57;-0.03;53.69
71396;DHT22;59888;55.814;37.132;2023-02-15T06:44:23;0.01;53.30
71396;DHT22;59888;55.814;37.132;2023-02-15T06:46:49;0.08;53.62
71396;DHT22;59888;55.814;37.132;2023-02-15T06:49:15;0.10;52.41
71396;DHT22;59888;55.814;37.132;2023-02-15T06:51:41;0.07;52.74
71396;DHT22;59888;55.814;37.132;2023-02-15T06:54:06;0.13;53.24
71396;DHT22;59888;55.814;37.132;2023-02-15T06:56:32;0.16;52.46
71396;DHT22;59888;55.814;37.132;2023-02-15T06:58:58;0.19;52.69
71396;DHT22;59888;55.814;37.132;2023-02-15T07:01:24;0.25;52.80
71396;DHT22;59888;55.814;37.132;2023-02-15T07:03:55;0.30;52.04
71396;DHT22;59888;55.814;37.132;2023-02-15T07:06:21;0.35;52.29
71396;DHT22;59888;55.814;37.132;2023-02-15T07:08:47;0.46;51.88
71396;DHT22;59888;55.814;37.132;2023-02-15T07:11:13;0.51;52.18
71396;DHT22;59888;55.814;37.132;2023-02-15T07:13:57;0.62;52.22
71396;DHT22;59888;55.814;37.132;2023-02-15T07:16:23;0.73;52.22
71396;DHT22;59888;55.814;37.132;2023-02-15T07:18:49;0.77;51.81
71396;DHT22;59888;55.814;37.132;2023-02-15T07:21:15;0.74;50.20
71396;DHT22;59888;55.814;37.132;2023-02-15T07:23:43;0.74;50.85
71396;DHT22;59888;55.814;37.132;2023-02-15T07:26:09;0.72;50.92
71396;DHT22;59888;55.814;37.132;2023-02-15T07:28:35;0.72;50.54
71396;DHT22;59888;55.814;37.132;2023-02-15T07:31:03;0.72;50.05
71396;DHT22;59888;55.814;37.132;2023-02-15T07:33:33;0.66;50.02
71396;DHT22;59888;55.814;37.132;2023-02-15T07:36:01;0.63;50.56
71396;DHT22;59888;55.814;37.132;2023-02-15T07:38:31;0.68;50.40
71396;DHT22;59888;55.814;37.132;2023-02-15T07:40:58;0.75;50.69
71396;DHT22;59888;55.814;37.132;2023-02-15T07:43:25;0.80;50.66
71396;DHT22;59888;55.814;37.132;2023-02-15T07:45:51;0.89;50.76
71396;DHT22;59888;55.814;37.132;2023-02-15T07:48:17;0.94;50.59
71396;DHT22;59888;55.814;37.132;2023-02-15T07:50:43;1.03;51.10
71396;DHT22;59888;55.814;37.132;2023-02-15T07:53:09;1.02;49.34
71396;DHT22;59888;55.814;37.132;2023-02-15T07:55:35;0.97;49.95
71396;DHT22;59888;55.814;37.132;2023-02-15T07:58:00;1.05;50.44
71396;DHT22;59888;55.814;37.132;2023-02-15T08:00:27;1.16;50.46
71396;DHT22;59888;55.814;37.132;2023-02-15T08:02:55;1.12;49.54
71396;DHT22;59888;55.814;37.132;2023-02-15T08:05:42;1.11;51.09
71396;DHT22;59888;55.814;37.132;2023-02-15T08:08:10;1.09;50.87
71396;DHT22;59888;55.814;37.132;2023-02-15T08:11:05;1.06;50.33
71396;DHT22;59888;55.814;37.132;2023-02-15T08:14:10;1.14;50.71
71396;DHT22;59888;55.814;37.132;2023-02-15T08:21:47;1.22;50.61
71396;DHT22;59888;55.814;37.132;2023-02-15T08:24:15;1.25;50.21
71396;DHT22;59888;55.814;37.132;2023-02-15T08:26:41;1.36;51.24
71396;DHT22;59888;55.814;37.132;2023-02-15T08:29:07;1.46;50.62
71396;DHT22;59888;55.814;37.132;2023-02-15T08:31:34;1.52;49.79
71396;DHT22;59888;55.814;37.132;2023-02-15T08:34:00;1.48;50.06
71396;DHT22;59888;55.814;37.132;2023-02-15T08:36:29;1.46;50.00
71396;DHT22;59888;55.814;37.132;2023-02-15T08:38:58;1.57;50.64
71396;DHT22;59888;55.814;37.132;2023-02-15T08:41:26;1.63;50.00
71396;DHT22;59888;55.814;37.132;2023-02-15T08:43:54;1.65;50.76
71396;DHT22;59888;55.814;37.132;2023-02-15T08:46:21;1.58;49.93
71396;DHT22;59888;55.814;37.132;2023-02-15T08:48:49;1.62;50.40
71396;DHT22;59888;55.814;37.132;2023-02-15T08:51:20;1.66;50.58
71396;DHT22;59888;55.814;37.132;2023-02-15T08:53:51;1.61;50.80
71396;DHT22;59888;55.814;37.132;2023-02-15T08:56:20;1.55;50.88
71396;DHT22;59888;55.814;37.132;2023-02-15T08:58:46;1.46;49.98
71396;DHT22;59888;55.814;37.132;2023-02-15T09:01:18;1.34;48.89
71396;DHT22;59888;55.814;37.132;2023-02-15T09:03:54;1.24;49.55
71396;DHT22;59888;55.814;37.132;2023-02-15T09:06:22;1.20;49.83
71396;DHT22;59888;55.814;37.132;2023-02-15T09:08:49;1.14;49.69
71396;DHT22;59888;55.814;37.132;2023-02-15T09:11:20;1.06;49.69
71396;DHT22;59888;55.814;37.132;2023-02-15T09:13:52;1.07;50.17
71396;DHT22;59888;55.814;37.132;2023-02-15T09:16:19;1.20;50.78
71396;DHT22;59888;55.814;37.132;2023-02-15T09:18:46;1.29;50.34
71396;DHT22;59888;55.814;37.132;2023-02-15T09:21:18;1.32;50.79
71396;DHT22;59888;55.814;37.132;2023-02-15T09:23:46;1.41;50.67
71396;DHT22;59888;55.814;37.132;2023-02-15T09:26:18;1.47;50.84
71396;DHT22;59888;55.814;37.132;2023-02-15T09:28:45;1.43;50.52
71396;DHT22;59888;55.814;37.132;2023-02-15T09:33:39;1.50;51.42
71396;DHT22;59888;55.814;37.132;2023-02-15T09:36:16;1.67;51.15
71396;DHT22;59888;55.814;37.132;2023-02-15T09:38:44;1.81;51.24
71396;DHT22;59888;55.814;37.132;2023-02-15T10:03:46;1.80;49.34
71396;DHT22;59888;55.814;37.132;2023-02-15T10:06:40;1.67;49.40
71396;DHT22;59888;55.814;37.132;2023-02-15T10:24:56;1.72;49.85
71396;DHT22;59888;55.814;37.132;2023-02-15T10:27:23;1.77;50.11
71396;DHT22;59888;55.814;37.132;2023-02-15T10:30:08;1.82;50.05
71396;DHT22;59888;55.814;37.132;2023-02-15T10:32:43;1.83;49.47
71396;DHT22;59888;55.814;37.132;2023-02-15T10:38:15;1.94;49.27
71396;DHT22;59888;55.814;37.132;2023-02-15T10:46:48;2.12;48.56
71396;DHT22;59888;55.814;37.132;2023-02-15T10:49:57;2.05;48.52
71396;DHT22;59888;55.814;37.132;2023-02-15T10:55:06;2.01;49.02
71396;DHT22;59888;55.814;37.132;2023-02-15T11:00:45;1.86;50.45
71396;DHT22;59888;55.814;37.132;2023-02-15T11:06:06;1.91;50.85
71396;DHT22;59888;55.814;37.132;2023-02-15T11:08:40;1.98;50.89
71396;DHT22;59888;55.814;37.132;2023-02-15T11:11:10;2.13;50.43
71396;DHT22;59888;55.814;37.132;2023-02-15T11:13:47;2.22;50.21
71396;DHT22;59888;55.814;37.132;2023-02-15T11:16:35;2.23;50.02
71396;DHT22;59888;55.814;37.132;2023-02-15T11:19:26;2.30;50.05
71396;DHT22;59888;55.814;37.132;2023-02-15T11:21:57;2.34;50.26
71396;DHT22;59888;55.814;37.132;2023-02-15T11:24:28;2.36;50.01
71396;DHT22;59888;55.814;37.132;2023-02-15T11:32:31;2.13;50.14
71396;DHT22;59888;55.814;37.132;2023-02-15T11:37:40;2.15;50.56
71396;DHT22;59888;55.814;37.132;2023-02-15T11:42:47;2.07;50.24
71396;DHT22;59888;55.814;37.132;2023-02-15T11:47:47;2.16;50.25
71396;DHT22;59888;55.814;37.132;2023-02-15T11:50:15;2.15;50.24
71396;DHT22;59888;55.814;37.132;2023-02-15T11:52:43;2.14;50.34
71396;DHT22;59888;55.814;37.132;2023-02-15T11:55:14;2.12;49.79
71396;DHT22;59888;55.814;37.132;2023-02-15T11:57:45;2.02;50.01
71396;DHT22;59888;55.814;37.132;2023-02-15T12:00:20;1.96;50.06
71396;DHT22;59888;55.814;37.132;2023-02-15T12:02:52;1.97;50.42
71396;DHT22;59888;55.814;37.132;2023-02-15T12:05:21;2.01;50.53
71396;DHT22;59888;55.814;37.132;2023-02-15T12:08:03;2.02;50.36
71396;DHT22;59888;55.814;37.132;2023-02-15T12:10:42;2.00;50.52
71396;DHT22;59888;55.814;37.132;2023-02-15T12:13:15;2.01;50.35
71396;DHT22;59888;55.814;37.132;2023-02-15T12:15:48;1.90;49.88
71396;DHT22;59888;55.814;37.132;2023-02-15T12:20:50;1.70;50.70
71396;DHT22;59888;55.814;37.132;2023-02-15T12:23:17;1.65;50.79
71396;DHT22;59888;55.814;37.132;2023-02-15T12:25:54;1.61;50.91
71396;DHT22;59888;55.814;37.132;2023-02-15T12:30:54;1.45;50.84
71396;DHT22;59888;55.814;37.132;2023-02-15T12:33:41;1.37;51.21
71396;DHT22;59888;55.814;37.132;2023-02-15T12:36:15;1.37;51.28
71396;DHT22;59888;55.814;37.132;2023-02-15T12:38:43;1.38;50.98
71396;DHT22;59888;55.814;37.132;2023-02-15T12:41:21;1.38;51.37
71396;DHT22;59888;55.814;37.132;2023-02-15T12:44:06;1.27;51.27
71396;DHT22;59888;55.814;37.132;2023-02-15T12:46:33;1.23;51.44
71396;DHT22;59888;55.814;37.132;2023-02-15T12:49:19;1.27;51.29
71396;DHT22;59888;55.814;37.132;2023-02-15T12:51:51;1.23;51.28
71396;DHT22;59888;55.814;37.132;2023-02-15T12:54:37;1.28;51.17
71396;DHT22;59888;55.814;37.132;2023-02-15T12:57:26;1.25;51.24
71396;DHT22;59888;55.814;37.132;2023-02-15T13:00:00;1.27;50.93
71396;DHT22;59888;55.814;37.132;2023-02-15T13:07:58;1.05;51.59
71396;DHT22;59888;55.814;37.132;2023-02-15T13:10:29;0.99;51.79
71396;DHT22;59888;55.814;37.132;2023-02-15T13:12:57;1.03;51.95
71396;DHT22;59888;55.814;37.132;2023-02-15T13:15:26;1.01;51.91
71396;DHT22;59888;55.814;37.132;2023-02-15T13:17:55;1.01;51.94
71396;DHT22;59888;55.814;37.132;2023-02-15T13:20:22;0.95;51.84
71396;DHT22;59888;55.814;37.132;2023-02-15T13:22:50;0.88;51.70
71396;DHT22;59888;55.814;37.132;2023-02-15T13:25:21;0.84;51.79
71396;DHT22;59888;55.814;37.132;2023-02-15T13:27:52;0.88;51.68
71396;DHT22;59888;55.814;37.132;2023-02-15T13:30:26;0.93;51.78
71396;DHT22;59888;55.814;37.132;2023-02-15T13:32:56;0.90;51.13
71396;DHT22;59888;55.814;37.132;2023-02-15T13:35:25;0.88;51.59
71396;DHT22;59888;55.814;37.132;2023-02-15T13:43:23;0.80;51.65
71396;DHT22;59888;55.814;37.132;2023-02-15T13:46:04;0.87;51.82
71396;DHT22;59888;55.814;37.132;2023-02-15T13:48:52;0.89;51.67
71396;DHT22;59888;55.814;37.132;2023-02-15T14:03:19;0.81;51.83
71396;DHT22;59888;55.814;37.132;2023-02-15T14:08:23;0.76;51.59
71396;DHT22;59888;55.814;37.132;2023-02-15T14:11:12;0.74;51.60
71396;DHT22;59888;55.814;37.132;2023-02-15T14:14:00;0.75;51.70
71396;DHT22;59888;55.814;37.132;2023-02-15T14:21:59;0.62;51.32
71396;DHT22;59888;55.814;37.132;2023-02-15T14:27:27;0.53;51.94
71396;DHT22;59888;55.814;37.132;2023-02-15T14:30:15;0.49;51.84
71396;DHT22;59888;55.814;37.132;2023-02-15T14:32:46;0.44;52.06
71396;DHT22;59888;55.814;37.132;2023-02-15T14:35:21;0.34;51.96
71396;DHT22;59888;55.814;37.132;2023-02-15T14:37:55;0.32;52.24
71396;DHT22;59888;55.814;37.132;2023-02-15T14:46:42;0.35;52.69
71396;DHT22;59888;55.814;37.132;2023-02-15T14:49:27;0.38;52.62
71396;DHT22;59888;55.814;37.132;2023-02-15T14:51:56;0.43;52.65
71396;DHT22;59888;55.814;37.132;2023-02-15T15:02:17;0.45;52.80
71396;DHT22;59888;55.814;37.132;2023-02-15T15:04:59;0.45;52.69
71396;DHT22;59888;55.814;37.132;2023-02-15T15:07:36;0.35;52.73
71396;DHT22;59888;55.814;37.132;2023-02-15T15:10:05;0.34;52.77
71396;DHT22;59888;55.814;37.132;2023-02-15T15:12:54;0.42;52.72
71396;DHT22;59888;55.814;37.132;2023-02-15T15:17:55;0.37;52.69
71396;DHT22;59888;55.814;37.132;2023-02-15T15:25:51;0.33;52.89
71396;DHT22;59888;55.814;37.132;2023-02-15T15:34:12;0.25;52.86
71396;DHT22;59888;55.814;37.132;2023-02-15T15:50:22;0.13;52.98
71396;DHT22;59888;55.814;37.132;2023-02-15T15:52:54;0.15;53.07
71396;DHT22;59888;55.814;37.132;2023-02-15T15:55:25;0.12;52.72
71396;DHT22;59888;55.814;37.132;2023-02-15T15:58:00;0.07;52.85
71396;DHT22;59888;55.814;37.132;2023-02-15T16:00:52;0.09;52.96
71396;DHT22;59888;55.814;37.132;2023-02-15T16:03:26;0.12;53.08
71396;DHT22;59888;55.814;37.132;2023-02-15T16:05:53;0.19;52.94
71396;DHT22;59888;55.814;37.132;2023-02-15T16:08:47;0.19;53.04
71396;DHT22;59888;55.814;37.132;2023-02-15T16:11:20;0.24;53.08
71396;DHT22;59888;55.814;37.132;2023-02-15T16:13:48;0.29;53.14
71396;DHT22;59888;55.814;37.132;2023-02-15T16:16:25;0.33;52.99
71396;DHT22;59888;55.814;37.132;2023-02-15T16:18:57;0.42;52.97
71396;DHT22;59888;55.814;37.132;2023-02-15T16:21:35;0.43;52.69
71396;DHT22;59888;55.814;37.132;2023-02-15T16:27:20;0.43;52.75
71396;DHT22;59888;55.814;37.132;2023-02-15T16:29:48;0.36;52.89
71396;DHT22;59888;55.814;37.132;2023-02-15T16:32:22;0.29;53.08
71396;DHT22;59888;55.814;37.132;2023-02-15T16:34:57;0.32;53.21
71396;DHT22;59888;55.814;37.132;2023-02-15T16:37:25;0.38;53.21
71396;DHT22;59888;55.814;37.132;2023-02-15T16:39:54;0.37;52.92
71396;DHT22;59888;55.814;37.132;2023-02-15T16:42:21;0.34;52.92
71396;DHT22;59888;55.814;37.132;2023-02-15T16:45:12;0.29;53.01
71396;DHT22;59888;55.814;37.132;2023-02-15T16:47:44;0.23;52.85
71396;DHT22;59888;55.814;37.132;2023-02-15T16:50:21;0.25;53.00
71396;DHT22;59888;55.814;37.132;2023-02-15T16:52:48;0.29;52.95
71396;DHT22;59888;55.814;37.132;2023-02-15T16:55:26;0.22;52.64
71396;DHT22;59888;55.814;37.132;2023-02-15T16:57:59;0.17;52.40
71396;DHT22;59888;55.814;37.132;2023-02-15T17:00:31;0.13;52.56
71396;DHT22;59888;55.814;37.132;2023-02-15T17:13:28;-0.00;52.34
71396;DHT22;59888;55.814;37.132;2023-02-15T17:18:24;0.02;52.41
71396;DHT22;59888;55.814;37.132;2023-02-15T17:20:54;0.01;52.18
71396;DHT22;59888;55.814;37.132;2023-02-15T17:23:31;0.05;52.50
71396;DHT22;59888;55.814;37.132;2023-02-15T17:26:02;0.07;52.13
71396;DHT22;59888;55.814;37.132;2023-02-15T17:28:36;0.07;52.39
71396;DHT22;59888;55.814;37.132;2023-02-15T17:31:06;0.07;52.40
71396;DHT22;59888;55.814;37.132;2023-02-15T17:38:29;0.12;52.27
71396;DHT22;59888;55.814;37.132;2023-02-15T17:40:55;0.14;52.38
71396;DHT22;59888;55.814;37.132;2023-02-15T17:43:22;0.12;52.25
71396;DHT22;59888;55.814;37.132;2023-02-15T17:45:49;0.07;52.08
71396;DHT22;59888;55.814;37.132;2023-02-15T17:48:36;0.09;52.18
71396;DHT22;59888;55.814;37.132;2023-02-15T17:51:04;0.12;52.33
71396;DHT22;59888;55.814;37.132;2023-02-15T17:53:31;0.12;52.13
71396;DHT22;59888;55.814;37.132;2023-02-15T17:55:57;0.13;52.07
71396;DHT22;59888;55.814;37.132;2023-02-15T17:58:35;0.07;51.87
71396;DHT22;59888;55.814;37.132;2023-02-15T18:01:05;0.04;52.10
71396;DHT22;59888;55.814;37.132;2023-02-15T18:03:52;-0.05;51.71
71396;DHT22;59888;55.814;37.132;2023-02-15T18:06:38;-0.07;52.14
71396;DHT22;59888;55.814;37.132;2023-02-15T18:09:24;-0.01;52.30
71396;DHT22;59888;55.814;37.132;2023-02-15T18:12:35;0.03;52.09
71396;DHT22;59888;55.814;37.132;2023-02-15T18:15:05;-0.06;51.83
71396;DHT22;59888;55.814;37.132;2023-02-15T18:18:07;-0.10;51.62
71396;DHT22;59888;55.814;37.132;2023-02-15T18:20:32;-0.13;52.16
71396;DHT22;59888;55.814;37.132;2023-02-15T18:22:59;-0.15;52.24
71396;DHT22;59888;55.814;37.132;2023-02-15T18:25:26;-0.15;52.23
71396;DHT22;59888;55.814;37.132;2023-02-15T18:27:53;-0.12;52.27
71396;DHT22;59888;55.814;37.132;2023-02-15T18:30:22;-0.11;52.38
71396;DHT22;59888;55.814;37.132;2023-02-15T18:32:49;-0.11;52.01
71396;DHT22;59888;55.814;37.132;2023-02-15T18:35:22;-0.12;52.49
71396;DHT22;59888;55.814;37.132;2023-02-15T18:37:49;-0.03;52.63
71396;DHT22;59888;55.814;37.132;2023-02-15T18:40:18;-0.06;52.32
71396;DHT22;59888;55.814;37.132;2023-02-15T18:42:45;-0.06;52.47
71396;DHT22;59888;55.814;37.132;2023-02-15T18:45:14;-0.07;52.14
71396;DHT22;59888;55.814;37.132;2023-02-15T18:47:40;-0.03;52.33
71396;DHT22;59888;55.814;37.132;2023-02-15T18:50:06;-0.02;52.45
71396;DHT22;59888;55.814;37.132;2023-02-15T18:52:35;-0.02;52.40
71396;DHT22;59888;55.814;37.132;2023-02-15T18:55:04;-0.02;52.14
71396;DHT22;59888;55.814;37.132;2023-02-15T18:57:39;-0.08;52.04
71396;DHT22;59888;55.814;37.132;2023-02-15T19:00:21;-0.14;51.95
71396;DHT22;59888;55.814;37.132;2023-02-15T19:02:47;-0.15;52.36
71396;DHT22;59888;55.814;37.132;2023-02-15T19:05:13;-0.16;52.40
71396;DHT22;59888;55.814;37.132;2023-02-15T19:07:40;-0.15;52.59
71396;DHT22;59888;55.814;37.132;2023-02-15T19:10:14;-0.16;52.32
71396;DHT22;59888;55.814;37.132;2023-02-15T19:12:41;-0.15;52.75
71396;DHT22;59888;55.814;37.132;2023-02-15T19:15:14;-0.08;52.98
71396;DHT22;59888;55.814;37.132;2023-02-15T19:17:41;-0.09;53.23
71396;DHT22;59888;55.814;37.132;2023-02-15T19:20:14;-0.09;53.23
71396;DHT22;59888;55.814;37.132;2023-02-15T19:22:40;-0.14;53.01
71396;DHT22;59888;55.814;37.132;2023-02-15T19:25:06;-0.15;52.99